Impacts TAF Board INFO
FOR SITUATIONAL AWARENESS. NOT TO BE USED FOR FLIGHT PLANNING PURPOSES.
IDs:

KCLE - Cleveland/Hopkins In, OH, US

Issued at 1720 UTC 25 May 2018
Updated at 2202 UTC 25 May 2018
Potential Impact None Slight Moderate High
Time2151Z 25/23Z 26/00Z 26/01Z 26/02Z 26/03Z 26/04Z 26/05Z 26/06Z 26/07Z 26/08Z 26/09Z 26/10Z 26/11Z>>
Type OBS PRVL PRVL PRVL PRVL PRVL PRVL PRVL PRVL PRVL PRVL PRVL PRVL PRVL
VIS 10 >6 >6 >6 >6 >6 >6 >6 >6 >6 >6 >6 >6 >6
CIG -- -- -- -- -- -- -- -- -- -- -- -- -- --
Cover FEW SKC SKC SKC SKC SKC SKC SKC SKC SKC SKC SKC SKC SKC
FltCat VFR VFR VFR VFR VFR VFR VFR VFR VFR VFR VFR VFR VFR VFR
WX -- -- -- -- -- -- -- -- -- -- -- -- -- --
WDir 240 180 180 190 190 190 190 190 190 190 190 190 190 190
WSpd 10 6 6 4 4 4 4 4 4 4 4 4 4 4
WGst -- -- -- -- -- -- -- -- -- -- -- -- -- --

Raw TAF
KCLE 251720Z 2518/2624 18006KT P6SM SKC
  FM260100 19004KT P6SM SKC
  FM261400 23006KT P6SM BKN080
  FM261800 18006KT P6SM VCTS BKN050CB
  TEMPO 2618/2622 6SM -SHRA OVC025


Raw METAR
KCLE 252151Z 24010KT 10SM FEW250 29/12 A2988 RMK AO2 SLP114 T02890122 $
KCLE 252051Z 21009KT 10SM FEW250 29/12 A2990 RMK AO2 SLP122 T02890122 58021 $
KCLE 251951Z 23009KT 10SM FEW250 29/12 A2993 RMK AO2 SLP131 T02890117 $

METAR Board
Radar Display
Forecast Discussion

FOR SITUATIONAL AWARENESS. NOT TO BE USED FOR FLIGHT PLANNING PURPOSES.